Time;durP1;ratioP1;P1;durP2;ratioP2;P2;SDS_P1;SDS_P2;PMS_P1;PMS_P2;Temp;Humidity;BMP_temperature;BMP_pressure;BME280_temperature;BME280_humidity;BME280_pressure;Samples;Min_cycle;Max_cycle;Signal;HPM_P1;HPM_P2
2024/02/23 00:02:18;;;;;;;0.70;0.70;;;8.00;99.90;;;;;;5027922;28;20482;-67
2024/02/23 00:04:44;;;;;;;1.27;0.83;;;8.00;99.90;;;;;;5030442;28;20441;-66
2024/02/23 00:07:10;;;;;;;0.70;0.70;;;8.00;99.90;;;;;;5029691;28;20436;-67
2024/02/23 00:09:36;;;;;;;1.73;0.77;;;7.90;99.90;;;;;;5029269;28;20425;-67
2024/02/23 00:12:02;;;;;;;0.70;0.70;;;7.80;99.90;;;;;;5030457;28;20436;-65
2024/02/23 00:14:30;;;;;;;0.90;0.60;;;7.80;99.90;;;;;;5029509;28;20463;-67
2024/02/23 00:16:57;;;;;;;0.80;0.80;;;7.80;99.90;;;;;;5029376;28;20433;-66
2024/02/23 00:19:23;;;;;;;1.77;0.87;;;7.90;99.90;;;;;;5028838;28;20460;-67
2024/02/23 00:21:50;;;;;;;0.83;0.83;;;7.90;99.90;;;;;;5028708;28;20437;-67
2024/02/23 00:24:21;;;;;;;0.93;0.70;;;7.80;99.90;;;;;;5029391;28;20435;-67
2024/02/23 00:26:48;;;;;;;1.33;0.70;;;7.90;99.90;;;;;;5029076;28;20475;-66
2024/02/23 00:29:14;;;;;;;0.70;0.70;;;7.90;99.90;;;;;;5029117;28;20429;-67
2024/02/23 00:31:42;;;;;;;0.83;0.80;;;7.90;99.90;;;;;;5030313;28;20432;-65
2024/02/23 00:34:13;;;;;;;1.33;1.03;;;7.90;99.90;;;;;;5030041;28;20249;-68
2024/02/23 00:36:40;;;;;;;0.80;0.73;;;7.90;99.90;;;;;;5027367;28;20425;-65
2024/02/23 00:39:07;;;;;;;0.80;0.63;;;8.00;99.90;;;;;;5029759;28;20666;-67
2024/02/23 00:41:33;;;;;;;0.50;0.50;;;7.90;99.90;;;;;;5028372;28;20541;-67
2024/02/23 00:43:59;;;;;;;0.60;0.60;;;7.90;99.90;;;;;;5030050;28;20558;-66
2024/02/23 00:46:24;;;;;;;4.03;1.20;;;7.90;99.90;;;;;;5027602;28;21028;-68
2024/02/23 00:48:50;;;;;;;0.70;0.70;;;7.90;99.90;;;;;;5029980;28;20182;-66
2024/02/23 00:51:16;;;;;;;0.77;0.77;;;7.90;99.90;;;;;;5029842;28;20196;-65
2024/02/23 00:53:42;;;;;;;1.23;0.93;;;7.80;99.90;;;;;;5029386;28;20553;-68
2024/02/23 00:56:07;;;;;;;1.47;1.00;;;7.80;99.90;;;;;;5030093;28;20631;-67
2024/02/23 00:58:33;;;;;;;1.00;0.90;;;7.80;99.90;;;;;;5027643;28;20357;-68
2024/02/23 01:01:00;;;;;;;1.10;1.00;;;7.80;99.90;;;;;;5029996;28;20272;-66
2024/02/23 01:03:26;;;;;;;1.23;1.13;;;7.80;99.90;;;;;;5029842;28;20201;-65
2024/02/23 01:05:52;;;;;;;0.97;0.97;;;7.80;99.90;;;;;;5030318;28;20819;-67
2024/02/23 01:08:18;;;;;;;1.27;1.17;;;7.70;99.90;;;;;;5030012;28;20428;-68
2024/02/23 01:10:43;;;;;;;1.40;1.30;;;7.70;99.90;;;;;;5029994;28;20309;-66
2024/02/23 01:13:09;;;;;;;1.10;0.90;;;7.70;99.90;;;;;;5030274;28;20820;-67
2024/02/23 01:15:35;;;;;;;1.00;0.87;;;7.70;99.90;;;;;;5028652;28;20264;-68
2024/02/23 01:18:01;;;;;;;1.70;0.90;;;7.70;99.90;;;;;;5030310;28;20187;-68
2024/02/23 01:20:26;;;;;;;1.47;1.13;;;7.70;99.90;;;;;;5029690;28;20197;-68
2024/02/23 01:22:52;;;;;;;1.33;1.07;;;7.70;99.90;;;;;;5030349;28;20190;-68
2024/02/23 01:25:18;;;;;;;2.63;1.90;;;7.60;99.90;;;;;;5030582;28;20185;-67
2024/02/23 01:27:44;;;;;;;1.20;1.10;;;7.60;99.90;;;;;;5029557;28;20187;-68
2024/02/23 01:30:10;;;;;;;1.27;1.13;;;7.70;99.90;;;;;;5029813;28;20426;-65
2024/02/23 01:32:38;;;;;;;0.97;0.90;;;7.60;99.90;;;;;;5029748;28;20432;-65
2024/02/23 01:35:05;;;;;;;2.13;1.03;;;7.70;99.90;;;;;;5032091;28;20581;-65
2024/02/23 01:37:31;;;;;;;2.40;1.07;;;7.60;99.90;;;;;;5032854;28;20432;-66
2024/02/23 01:39:57;;;;;;;1.63;1.10;;;7.60;99.90;;;;;;5033947;28;20428;-67
2024/02/23 01:42:23;;;;;;;1.70;0.90;;;7.60;99.90;;;;;;5033166;28;20197;-68
2024/02/23 01:44:49;;;;;;;1.93;1.23;;;7.60;99.90;;;;;;5033929;28;20434;-68
2024/02/23 01:47:15;;;;;;;2.53;0.87;;;7.60;99.90;;;;;;5031941;28;20443;-66
2024/02/23 01:49:42;;;;;;;0.80;0.80;;;7.60;99.90;;;;;;5033533;28;20285;-65
2024/02/23 01:52:08;;;;;;;1.20;1.00;;;7.70;99.90;;;;;;5033449;28;20436;-66
2024/02/23 01:54:34;;;;;;;1.63;1.13;;;7.60;99.90;;;;;;5033116;28;20480;-66
2024/02/23 01:57:01;;;;;;;1.30;1.20;;;7.60;99.90;;;;;;5034202;28;20429;-66
2024/02/23 01:59:27;;;;;;;2.63;1.00;;;7.60;99.90;;;;;;5032685;28;20729;-68
2024/02/23 02:01:53;;;;;;;1.60;1.50;;;7.50;99.90;;;;;;5032632;28;21167;-66
2024/02/23 02:04:19;;;;;;;3.10;1.20;;;7.50;99.90;;;;;;5033246;28;20424;-65
2024/02/23 02:06:46;;;;;;;1.87;1.23;;;7.50;99.90;;;;;;5032254;28;20185;-66
2024/02/23 02:09:12;;;;;;;1.53;0.90;;;7.50;99.90;;;;;;5033303;28;20433;-66
2024/02/23 02:11:48;;;;;;;1.73;1.43;;;7.50;99.90;;;;;;5032065;28;20423;-67
2024/02/23 02:14:14;;;;;;;3.93;1.20;;;7.50;99.90;;;;;;5033265;28;20237;-65
2024/02/23 02:16:40;;;;;;;2.83;1.20;;;7.40;99.90;;;;;;5031727;28;20425;-67
2024/02/23 02:19:06;;;;;;;5.43;2.30;;;7.40;99.90;;;;;;5033206;28;20501;-66
2024/02/23 02:21:33;;;;;;;1.60;1.20;;;7.40;99.90;;;;;;5032179;28;20656;-67
2024/02/23 02:23:58;;;;;;;2.20;1.20;;;7.40;99.90;;;;;;5033458;28;20515;-66
2024/02/23 02:26:24;;;;;;;3.10;0.83;;;7.40;99.90;;;;;;5032009;28;20946;-65
2024/02/23 02:28:50;;;;;;;2.30;1.10;;;7.50;99.90;;;;;;5033098;28;20213;-67
2024/02/23 02:31:16;;;;;;;3.13;1.00;;;7.40;99.90;;;;;;5031760;28;20311;-67
2024/02/23 02:33:41;;;;;;;1.90;0.80;;;7.50;99.90;;;;;;5032503;28;20214;-68
2024/02/23 02:36:07;;;;;;;1.83;0.87;;;7.50;99.90;;;;;;5031204;28;20519;-66
2024/02/23 02:38:33;;;;;;;1.60;0.77;;;7.50;99.90;;;;;;5032361;28;20347;-67
2024/02/23 02:41:00;;;;;;;1.67;0.80;;;7.40;99.90;;;;;;5032611;28;20242;-67
2024/02/23 02:43:27;;;;;;;1.73;0.90;;;7.40;99.90;;;;;;5031707;28;20178;-66
2024/02/23 02:45:52;;;;;;;4.13;1.03;;;7.50;99.90;;;;;;5032090;28;20448;-67
2024/02/23 02:48:18;;;;;;;2.23;1.27;;;7.40;99.90;;;;;;5032265;28;20417;-67
2024/02/23 02:50:44;;;;;;;3.23;0.90;;;7.40;99.90;;;;;;5031695;28;20589;-66
2024/02/23 02:53:10;;;;;;;2.70;1.20;;;7.50;99.90;;;;;;5033279;28;20242;-65
2024/02/23 02:55:37;;;;;;;3.40;0.90;;;7.50;99.90;;;;;;5031308;28;20421;-66
2024/02/23 02:58:03;;;;;;;2.20;0.90;;;7.50;99.90;;;;;;5032358;28;20428;-67
2024/02/23 03:00:28;;;;;;;2.73;1.17;;;7.50;99.90;;;;;;5032240;28;20798;-68
2024/02/23 03:02:54;;;;;;;6.93;1.53;;;7.50;99.90;;;;;;5031532;28;20179;-66
2024/02/23 03:05:20;;;;;;;2.50;0.90;;;7.40;99.90;;;;;;5032396;28;20182;-68
2024/02/23 03:07:46;;;;;;;1.20;0.83;;;7.40;99.90;;;;;;5030988;28;20235;-68
2024/02/23 03:10:11;;;;;;;0.80;0.70;;;7.40;99.90;;;;;;5031850;28;20217;-66
2024/02/23 03:12:37;;;;;;;2.10;0.73;;;7.50;99.90;;;;;;5031506;28;20523;-67
2024/02/23 03:15:03;;;;;;;3.30;1.00;;;7.40;99.90;;;;;;5031848;28;20239;-68
2024/02/23 03:17:29;;;;;;;1.43;0.90;;;7.50;99.90;;;;;;5031974;28;20213;-68
2024/02/23 03:19:55;;;;;;;1.37;0.90;;;7.50;99.90;;;;;;5031276;28;20483;-66
2024/02/23 03:22:21;;;;;;;1.33;1.10;;;7.50;99.90;;;;;;5032173;28;20842;-66
2024/02/23 03:24:46;;;;;;;0.80;0.60;;;7.50;99.90;;;;;;5030504;28;20182;-67
2024/02/23 03:27:12;;;;;;;1.40;0.70;;;7.50;99.90;;;;;;5031804;28;20248;-67
2024/02/23 03:29:39;;;;;;;2.80;0.97;;;7.50;99.90;;;;;;5031711;28;20227;-65
2024/02/23 03:32:05;;;;;;;1.40;0.93;;;7.40;99.90;;;;;;5031222;28;20186;-66
2024/02/23 03:34:31;;;;;;;2.40;0.90;;;7.40;99.90;;;;;;5030377;28;20524;-68
2024/02/23 03:36:58;;;;;;;1.50;0.80;;;7.40;99.90;;;;;;5029397;28;20424;-67
2024/02/23 03:39:24;;;;;;;2.50;1.23;;;7.30;99.90;;;;;;5031810;28;20722;-66
2024/02/23 03:41:50;;;;;;;2.60;0.70;;;7.30;99.90;;;;;;5031299;28;20416;-68
2024/02/23 03:44:15;;;;;;;3.53;1.10;;;7.30;99.90;;;;;;5031145;28;21210;-66
2024/02/23 03:46:41;;;;;;;2.20;0.50;;;7.30;99.90;;;;;;5030893;28;20194;-66
2024/02/23 03:49:07;;;;;;;0.80;0.63;;;7.30;99.90;;;;;;5030672;28;20189;-68
2024/02/23 03:51:34;;;;;;;1.33;0.80;;;7.30;99.90;;;;;;5031255;28;20182;-68
2024/02/23 03:54:01;;;;;;;1.10;0.90;;;7.30;99.90;;;;;;5030123;28;20641;-68
2024/02/23 03:56:27;;;;;;;2.17;1.23;;;7.40;99.90;;;;;;5030181;28;20570;-66
2024/02/23 03:58:52;;;;;;;1.43;0.83;;;7.30;99.90;;;;;;5031795;28;20190;-65
2024/02/23 04:01:18;;;;;;;4.57;0.83;;;7.40;99.90;;;;;;5030697;28;20189;-66
2024/02/23 04:03:44;;;;;;;1.43;0.60;;;7.40;99.90;;;;;;5031683;28;20767;-67
2024/02/23 04:06:09;;;;;;;3.60;0.70;;;7.40;99.90;;;;;;5030379;28;20196;-67
2024/02/23 04:08:35;;;;;;;1.40;1.10;;;7.50;99.90;;;;;;5031158;28;20182;-65
2024/02/23 04:11:01;;;;;;;2.53;1.17;;;7.50;99.90;;;;;;5030388;28;20178;-65
2024/02/23 04:13:26;;;;;;;2.00;1.07;;;7.50;99.90;;;;;;5029882;28;20885;-66
2024/02/23 04:15:52;;;;;;;2.13;1.40;;;7.50;99.90;;;;;;5031170;28;20185;-65
2024/02/23 04:18:18;;;;;;;4.63;0.80;;;7.50;99.90;;;;;;5030281;28;20174;-66
2024/02/23 04:20:43;;;;;;;1.23;0.57;;;7.40;99.90;;;;;;5030843;28;20232;-66
2024/02/23 04:23:09;;;;;;;3.43;1.23;;;7.30;99.90;;;;;;5030699;28;20186;-66
2024/02/23 04:25:34;;;;;;;3.80;1.23;;;7.30;99.90;;;;;;5030549;28;20588;-64
2024/02/23 04:28:00;;;;;;;1.37;0.60;;;7.30;99.90;;;;;;5030152;28;20283;-66
2024/02/23 04:30:26;;;;;;;2.10;0.53;;;7.30;99.90;;;;;;5030078;28;20190;-65
2024/02/23 04:32:51;;;;;;;2.40;0.77;;;7.20;99.90;;;;;;5030558;28;20289;-65
2024/02/23 04:35:17;;;;;;;1.10;0.50;;;7.20;99.90;;;;;;5028533;28;20550;-67
2024/02/23 04:37:46;;;;;;;2.50;0.80;;;7.20;99.90;;;;;;5030700;28;20224;-67
2024/02/23 04:40:12;;;;;;;3.83;0.90;;;7.20;99.90;;;;;;5029934;28;20186;-68
2024/02/23 04:42:38;;;;;;;2.30;1.23;;;7.30;99.90;;;;;;5029883;28;20475;-65
2024/02/23 04:45:04;;;;;;;2.50;0.80;;;7.20;99.90;;;;;;5030450;28;20186;-67
2024/02/23 04:47:30;;;;;;;2.13;0.90;;;7.20;99.90;;;;;;5030285;28;20440;-68
2024/02/23 04:49:56;;;;;;;3.07;0.90;;;7.30;99.90;;;;;;5030383;28;20510;-67
2024/02/23 04:52:21;;;;;;;3.47;2.00;;;7.30;99.90;;;;;;5030556;28;20213;-68
2024/02/23 04:54:47;;;;;;;3.57;0.60;;;7.30;99.90;;;;;;5029468;28;20209;-66
2024/02/23 04:57:13;;;;;;;2.23;0.87;;;7.30;99.90;;;;;;5029214;28;20272;-66
2024/02/23 04:59:39;;;;;;;1.57;0.90;;;7.30;99.90;;;;;;5045887;28;20182;-66
2024/02/23 05:02:04;;;;;;;7.67;1.53;;;7.30;99.90;;;;;;5029828;28;20189;-65
2024/02/23 05:04:30;;;;;;;3.10;0.97;;;7.30;99.90;;;;;;5030718;28;20448;-68
2024/02/23 05:06:56;;;;;;;2.20;1.23;;;7.30;99.90;;;;;;5029579;28;20182;-67
2024/02/23 05:09:21;;;;;;;1.90;0.93;;;7.30;99.90;;;;;;5033310;28;20248;-68
2024/02/23 05:11:47;;;;;;;2.00;0.77;;;7.30;99.90;;;;;;5032721;28;20177;-67
2024/02/23 05:14:13;;;;;;;3.50;0.80;;;7.30;99.90;;;;;;5034114;28;20220;-66
2024/02/23 05:16:39;;;;;;;4.20;0.80;;;7.30;99.90;;;;;;5034263;28;20181;-68
2024/02/23 05:19:05;;;;;;;4.70;0.70;;;7.30;99.90;;;;;;5034081;28;20784;-69
2024/02/23 05:21:31;;;;;;;3.00;1.23;;;7.30;99.90;;;;;;5034195;28;20177;-67
2024/02/23 05:23:57;;;;;;;4.23;1.00;;;7.20;99.90;;;;;;5034312;28;20190;-65
2024/02/23 05:26:22;;;;;;;3.37;0.90;;;7.30;99.90;;;;;;5032230;28;20996;-65
2024/02/23 05:28:48;;;;;;;3.23;0.90;;;7.20;99.90;;;;;;5034555;28;20251;-66
2024/02/23 05:31:14;;;;;;;4.97;0.80;;;7.30;99.90;;;;;;5032774;28;20186;-67
2024/02/23 05:33:41;;;;;;;3.23;0.80;;;7.30;99.90;;;;;;5034892;28;20476;-67
2024/02/23 05:36:07;;;;;;;5.33;1.27;;;7.30;99.90;;;;;;5031347;28;20230;-66
2024/02/23 05:38:32;;;;;;;3.50;1.20;;;7.30;99.90;;;;;;5032956;28;20421;-66
2024/02/23 05:40:58;;;;;;;1.80;0.77;;;7.30;99.90;;;;;;5033134;28;20478;-67
2024/02/23 05:43:24;;;;;;;3.23;1.03;;;7.30;99.90;;;;;;5033654;28;20179;-68
2024/02/23 05:45:49;;;;;;;5.27;0.97;;;7.30;99.90;;;;;;5032598;28;20543;-68
2024/02/23 05:48:15;;;;;;;2.00;0.90;;;7.30;99.90;;;;;;5025102;28;20186;-68
2024/02/23 05:50:41;;;;;;;2.40;0.80;;;7.30;99.90;;;;;;5029606;28;20183;-66
2024/02/23 05:53:06;;;;;;;2.67;0.60;;;7.30;99.90;;;;;;5030671;28;20273;-65
2024/02/23 05:55:32;;;;;;;2.60;0.87;;;7.30;99.90;;;;;;5030018;28;20210;-68
2024/02/23 05:57:57;;;;;;;3.73;1.10;;;7.30;99.90;;;;;;5031119;28;20209;-66
2024/02/23 06:00:23;;;;;;;5.10;0.77;;;7.30;99.90;;;;;;5030104;28;20665;-68
2024/02/23 06:02:49;;;;;;;2.43;0.80;;;7.30;99.90;;;;;;5031808;28;20206;-68
2024/02/23 06:05:15;;;;;;;5.30;0.90;;;7.30;99.90;;;;;;5031964;28;20193;-65
2024/02/23 06:07:41;;;;;;;1.40;0.80;;;7.30;99.90;;;;;;5033233;28;20220;-65
2024/02/23 06:10:07;;;;;;;1.43;0.77;;;7.20;99.90;;;;;;5033280;28;20240;-66
2024/02/23 06:12:33;;;;;;;1.47;0.70;;;7.10;99.90;;;;;;5031839;28;20793;-67
2024/02/23 06:14:58;;;;;;;1.37;0.77;;;7.10;99.90;;;;;;5033092;28;20474;-66
2024/02/23 06:17:24;;;;;;;1.43;0.70;;;7.10;99.90;;;;;;5031851;28;20191;-66
2024/02/23 06:19:52;;;;;;;2.93;0.97;;;7.10;99.90;;;;;;5033538;28;20186;-68
2024/02/23 06:22:20;;;;;;;5.33;1.17;;;7.10;99.90;;;;;;5030980;28;20428;-66
2024/02/23 06:24:47;;;;;;;4.07;1.03;;;7.20;99.90;;;;;;5032499;28;20441;-65
2024/02/23 06:27:12;;;;;;;3.07;1.23;;;7.20;99.90;;;;;;5032772;28;20428;-68
2024/02/23 06:29:38;;;;;;;3.83;0.77;;;7.20;99.90;;;;;;5031489;28;20530;-68
2024/02/23 06:32:04;;;;;;;2.30;0.87;;;7.20;99.90;;;;;;5033652;28;20185;-67
2024/02/23 06:34:30;;;;;;;2.37;1.13;;;7.20;99.90;;;;;;5031987;28;20214;-65
2024/02/23 06:36:56;;;;;;;3.63;1.23;;;7.10;99.90;;;;;;5031580;28;20425;-66
2024/02/23 06:39:21;;;;;;;5.00;1.80;;;7.20;99.90;;;;;;5032414;28;20193;-65
2024/02/23 06:41:47;;;;;;;2.90;0.90;;;7.20;99.90;;;;;;5029493;28;20193;-69
2024/02/23 06:44:13;;;;;;;3.37;1.00;;;7.20;99.90;;;;;;5032676;28;20177;-67
2024/02/23 06:46:38;;;;;;;6.17;1.43;;;7.10;99.90;;;;;;5031588;28;20729;-67
2024/02/23 06:49:04;;;;;;;4.27;0.70;;;7.20;99.90;;;;;;5033213;28;20183;-66
2024/02/23 06:51:31;;;;;;;2.00;0.97;;;7.10;99.90;;;;;;5030099;28;20236;-66
2024/02/23 06:53:57;;;;;;;1.93;0.80;;;7.20;99.90;;;;;;5032313;28;20218;-66
2024/02/23 06:56:23;;;;;;;1.70;0.90;;;7.10;99.90;;;;;;5031375;28;20436;-67
2024/02/23 06:58:49;;;;;;;1.67;0.90;;;7.20;99.90;;;;;;5031775;28;21009;-67
2024/02/23 07:01:14;;;;;;;3.20;1.10;;;7.20;99.90;;;;;;5031291;28;20512;-67
2024/02/23 07:03:42;;;;;;;3.17;1.00;;;7.10;99.90;;;;;;5032888;28;20215;-65
2024/02/23 07:06:10;;;;;;;3.23;0.93;;;7.10;99.90;;;;;;5033212;28;20227;-68
2024/02/23 07:08:36;;;;;;;2.67;1.03;;;7.10;99.90;;;;;;5031643;28;20922;-67
2024/02/23 07:11:02;;;;;;;1.30;1.10;;;7.10;99.90;;;;;;5032814;28;20575;-68
2024/02/23 07:13:27;;;;;;;3.37;1.00;;;7.20;99.90;;;;;;5032655;28;20475;-66
2024/02/23 07:15:53;;;;;;;1.50;0.90;;;7.20;99.90;;;;;;5031932;28;20440;-67
2024/02/23 07:18:19;;;;;;;4.53;0.93;;;7.30;99.90;;;;;;5029461;28;20217;-66
2024/02/23 07:20:44;;;;;;;4.70;0.70;;;7.30;99.90;;;;;;5031275;28;20182;-67
2024/02/23 07:23:10;;;;;;;2.00;1.10;;;7.30;99.90;;;;;;5029941;28;20217;-66
2024/02/23 07:25:36;;;;;;;2.80;1.13;;;7.40;99.90;;;;;;5027570;28;20264;-65
2024/02/23 07:28:02;;;;;;;4.93;1.23;;;7.40;99.90;;;;;;5030325;28;20178;-67
2024/02/23 07:30:27;;;;;;;2.00;0.87;;;7.30;99.90;;;;;;5029848;28;20194;-65
2024/02/23 07:32:53;;;;;;;5.13;1.27;;;7.40;99.90;;;;;;5029736;28;20947;-67
2024/02/23 07:35:19;;;;;;;3.87;0.90;;;7.40;99.90;;;;;;5029276;28;20344;-67
2024/02/23 07:37:45;;;;;;;4.40;1.13;;;7.40;99.90;;;;;;5026198;28;20182;-65
2024/02/23 07:40:12;;;;;;;2.60;1.17;;;7.50;99.90;;;;;;5027933;28;20452;-70
2024/02/23 07:42:38;;;;;;;2.70;0.90;;;7.50;99.90;;;;;;5028948;28;20218;-70
2024/02/23 07:45:04;;;;;;;1.20;0.90;;;7.60;99.90;;;;;;5030808;28;20425;-69
2024/02/23 07:47:31;;;;;;;2.30;1.40;;;7.60;99.90;;;;;;5030657;28;20198;-69
2024/02/23 07:49:57;;;;;;;2.83;1.03;;;7.50;99.90;;;;;;5032079;28;20474;-68
2024/02/23 07:52:24;;;;;;;2.47;1.10;;;7.50;99.90;;;;;;5028794;28;20504;-70
2024/02/23 07:54:51;;;;;;;1.37;0.97;;;7.60;99.90;;;;;;5031370;28;20571;-65
2024/02/23 07:57:21;;;;;;;2.63;0.80;;;7.70;99.90;;;;;;5030485;28;20476;-70
2024/02/23 07:59:47;;;;;;;2.50;1.10;;;7.70;99.90;;;;;;5031448;28;20428;-68
2024/02/23 08:02:14;;;;;;;1.90;0.70;;;7.80;99.90;;;;;;5031492;28;20867;-73
2024/02/23 08:04:40;;;;;;;7.40;1.63;;;7.80;99.90;;;;;;5031579;28;20441;-71
2024/02/23 08:07:06;;;;;;;3.43;1.07;;;7.70;99.90;;;;;;5031466;28;20914;-70
2024/02/23 08:09:32;;;;;;;4.73;1.00;;;7.80;99.90;;;;;;5031383;28;20181;-68
2024/02/23 08:11:58;;;;;;;3.80;1.07;;;7.80;99.90;;;;;;5031345;28;20193;-71
2024/02/23 08:14:23;;;;;;;5.60;1.40;;;7.80;99.90;;;;;;5031498;28;20469;-74
2024/02/23 08:16:50;;;;;;;4.50;1.40;;;7.90;99.90;;;;;;5030254;28;20244;-71
2024/02/23 08:19:15;;;;;;;3.40;0.80;;;8.00;99.90;;;;;;5030705;28;20264;-70
2024/02/23 08:21:41;;;;;;;2.90;1.00;;;8.10;99.90;;;;;;5028717;28;20433;-67
2024/02/23 08:24:07;;;;;;;2.50;0.83;;;8.20;99.90;;;;;;5030399;28;20542;-70
2024/02/23 08:26:33;;;;;;;1.83;1.37;;;8.40;99.90;;;;;;5029383;28;21304;-68
2024/02/23 08:28:59;;;;;;;2.30;0.90;;;8.70;99.90;;;;;;5031908;28;20190;-70
2024/02/23 08:31:25;;;;;;;2.40;1.00;;;9.00;99.90;;;;;;5028695;28;20425;-70
2024/02/23 08:33:50;;;;;;;4.13;1.30;;;9.20;99.90;;;;;;5029508;28;20737;-67
2024/02/23 08:36:16;;;;;;;4.83;0.97;;;9.30;99.90;;;;;;5028162;28;20204;-67
2024/02/23 08:38:42;;;;;;;1.63;0.90;;;9.30;99.90;;;;;;5029655;28;20194;-69
2024/02/23 08:41:08;;;;;;;2.30;1.00;;;9.30;99.90;;;;;;5029592;28;20188;-68
2024/02/23 08:43:34;;;;;;;5.30;1.30;;;9.30;99.90;;;;;;5029377;28;20178;-66
2024/02/23 08:46:00;;;;;;;3.47;1.17;;;9.40;99.90;;;;;;5029500;28;20447;-69
2024/02/23 08:48:25;;;;;;;2.17;0.90;;;9.40;99.90;;;;;;5029915;28;20209;-73
2024/02/23 08:50:51;;;;;;;3.73;1.37;;;9.40;99.90;;;;;;5030294;28;20261;-68
2024/02/23 08:53:17;;;;;;;2.03;0.90;;;9.20;99.90;;;;;;5031651;28;20268;-69
2024/02/23 08:55:44;;;;;;;2.70;0.83;;;9.20;99.90;;;;;;5030753;28;20243;-69
2024/02/23 08:58:09;;;;;;;3.80;1.30;;;9.20;99.90;;;;;;5029976;28;20186;-67
2024/02/23 09:00:36;;;;;;;1.97;0.93;;;9.40;99.90;;;;;;5030445;28;20421;-70
2024/02/23 09:03:03;;;;;;;2.70;1.10;;;9.50;99.90;;;;;;5031130;28;20565;-73
2024/02/23 09:05:28;;;;;;;4.03;1.20;;;9.50;99.90;;;;;;5029514;28;20413;-71
2024/02/23 09:07:54;;;;;;;1.50;0.87;;;9.40;99.90;;;;;;5029567;28;20899;-64
2024/02/23 09:10:20;;;;;;;2.83;1.00;;;9.40;99.90;;;;;;5030544;28;20652;-69
2024/02/23 09:12:46;;;;;;;1.60;1.00;;;9.30;99.90;;;;;;5029487;28;20478;-66
2024/02/23 09:15:12;;;;;;;3.33;1.00;;;9.10;99.90;;;;;;5031602;28;20608;-65
2024/02/23 09:17:40;;;;;;;3.00;1.20;;;9.00;99.90;;;;;;5030906;28;20420;-69
2024/02/23 09:20:07;;;;;;;5.03;1.00;;;8.90;99.90;;;;;;5030553;28;20181;-71
2024/02/23 09:22:33;;;;;;;2.47;1.27;;;8.90;99.90;;;;;;5030929;28;20435;-71
2024/02/23 09:24:58;;;;;;;2.80;0.80;;;8.80;99.90;;;;;;5030155;28;21128;-68
2024/02/23 09:27:24;;;;;;;2.83;1.10;;;8.70;99.90;;;;;;5028906;28;20800;-69
2024/02/23 09:29:50;;;;;;;2.43;1.03;;;8.80;99.90;;;;;;5030099;28;20625;-71
2024/02/23 09:32:15;;;;;;;1.83;0.80;;;8.70;99.90;;;;;;5029093;28;20185;-72
2024/02/23 09:34:41;;;;;;;3.87;0.97;;;8.70;99.90;;;;;;5027871;28;20206;-71
2024/02/23 09:37:07;;;;;;;2.50;0.97;;;8.70;99.90;;;;;;5029636;28;20185;-70
2024/02/23 09:39:32;;;;;;;3.30;1.30;;;8.60;99.90;;;;;;5030511;28;20239;-70
2024/02/23 09:41:58;;;;;;;1.83;0.80;;;8.70;99.90;;;;;;5029226;28;20193;-68
2024/02/23 09:44:35;;;;;;;3.53;1.20;;;8.50;99.90;;;;;;5030015;28;20206;-68
2024/02/23 09:47:07;;;;;;;2.83;0.70;;;8.40;99.90;;;;;;5028035;28;20569;-69
2024/02/23 09:49:40;;;;;;;2.50;0.80;;;8.50;99.90;;;;;;5030151;28;20433;-69
2024/02/23 09:52:08;;;;;;;3.43;1.60;;;8.50;99.90;;;;;;5028687;28;20511;-72
2024/02/23 09:54:34;;;;;;;2.50;1.10;;;8.40;99.90;;;;;;5031406;28;20530;-67
2024/02/23 09:57:03;;;;;;;8.47;1.50;;;8.50;99.90;;;;;;5030865;28;20432;-67
2024/02/23 09:59:30;;;;;;;3.20;1.23;;;8.40;99.90;;;;;;5031943;28;21083;-70
2024/02/23 10:01:57;;;;;;;2.83;1.83;;;8.40;99.90;;;;;;5031828;28;20428;-66
2024/02/23 10:04:26;;;;;;;4.10;0.90;;;8.50;99.90;;;;;;5033480;28;20462;-70
2024/02/23 10:06:51;;;;;;;2.40;1.10;;;8.50;99.90;;;;;;5031439;28;20444;-67
2024/02/23 10:09:17;;;;;;;2.87;1.00;;;8.60;99.90;;;;;;5033088;28;20432;-66
2024/02/23 10:11:42;;;;;;;4.43;1.37;;;8.70;99.90;;;;;;5033072;28;20759;-67
2024/02/23 10:14:08;;;;;;;4.50;0.90;;;8.70;99.90;;;;;;5032512;28;20209;-72
2024/02/23 10:16:34;;;;;;;4.30;1.40;;;8.80;99.90;;;;;;5033149;28;20228;-67
2024/02/23 10:18:59;;;;;;;3.27;1.07;;;8.90;99.90;;;;;;5032430;28;20209;-70
2024/02/23 10:21:25;;;;;;;9.20;1.83;;;8.90;99.90;;;;;;5032996;28;21083;-68
2024/02/23 10:23:51;;;;;;;4.23;1.60;;;8.80;99.90;;;;;;5032434;28;20221;-68
2024/02/23 10:26:18;;;;;;;3.60;0.87;;;8.70;99.90;;;;;;5031974;28;20182;-68
2024/02/23 10:28:47;;;;;;;3.30;0.80;;;8.70;99.90;;;;;;5033118;28;20922;-63
2024/02/23 10:31:12;;;;;;;1.50;0.77;;;8.70;99.90;;;;;;5030977;28;21015;-69
2024/02/23 10:33:38;;;;;;;1.57;0.83;;;8.70;99.90;;;;;;5032847;28;20500;-65
2024/02/23 10:36:06;;;;;;;2.77;0.97;;;8.60;99.90;;;;;;5030677;28;20792;-67
2024/02/23 10:38:35;;;;;;;1.13;0.70;;;8.50;99.90;;;;;;5032151;28;21118;-67
2024/02/23 10:41:05;;;;;;;2.17;0.60;;;8.50;99.90;;;;;;5030714;28;20425;-69
2024/02/23 10:43:36;;;;;;;1.57;0.70;;;8.50;99.90;;;;;;5032782;28;20433;-72
2024/02/23 10:46:03;;;;;;;4.27;1.50;;;8.50;99.90;;;;;;5030499;28;20472;-67
2024/02/23 10:48:29;;;;;;;1.03;0.67;;;8.50;99.90;;;;;;5031887;28;20437;-68
2024/02/23 10:50:58;;;;;;;2.10;1.10;;;8.50;99.90;;;;;;5031603;28;20426;-70
2024/02/23 10:53:24;;;;;;;0.77;0.70;;;8.50;99.90;;;;;;5031940;28;20186;-69
2024/02/23 10:55:59;;;;;;;2.60;0.63;;;8.50;99.90;;;;;;5032832;28;21308;-71
2024/02/23 10:58:25;;;;;;;1.10;0.53;;;8.60;99.90;;;;;;5031990;28;20805;-67
2024/02/23 11:00:51;;;;;;;1.00;0.63;;;8.70;99.90;;;;;;5032489;28;20414;-71
2024/02/23 11:03:18;;;;;;;1.93;1.00;;;8.70;99.90;;;;;;5030380;28;20193;-65
2024/02/23 11:05:48;;;;;;;0.97;0.60;;;8.90;99.90;;;;;;5031018;28;20432;-67
2024/02/23 11:08:16;;;;;;;1.40;0.70;;;9.10;99.90;;;;;;5030459;28;20425;-71
2024/02/23 11:10:48;;;;;;;2.90;0.87;;;9.20;99.90;;;;;;5031347;28;20447;-70
2024/02/23 11:13:16;;;;;;;3.23;0.93;;;9.30;99.90;;;;;;5031072;28;21781;-69
2024/02/23 11:15:42;;;;;;;2.17;1.20;;;9.50;99.90;;;;;;5031243;28;20481;-68
2024/02/23 11:18:28;;;;;;;3.53;1.40;;;9.60;99.90;;;;;;5030791;28;20425;-70
2024/02/23 11:21:02;;;;;;;4.17;1.10;;;9.90;99.90;;;;;;5046246;28;20440;-66
2024/02/23 11:23:44;;;;;;;3.07;0.60;;;10.00;99.90;;;;;;5025766;28;20494;-69
2024/02/23 11:26:11;;;;;;;1.27;0.50;;;10.10;99.90;;;;;;5028314;28;20969;-70
2024/02/23 11:28:53;;;;;;;1.73;0.80;;;10.10;99.90;;;;;;5043433;28;20426;-67
2024/02/23 11:31:28;;;;;;;1.40;0.90;;;10.00;99.90;;;;;;5028455;28;20503;-70
2024/02/23 11:33:56;;;;;;;3.70;0.70;;;9.90;99.90;;;;;;5029725;28;20472;-70
2024/02/23 11:36:28;;;;;;;3.20;0.70;;;9.70;99.90;;;;;;5025831;28;20408;-67
2024/02/23 11:38:56;;;;;;;1.20;0.60;;;9.60;99.90;;;;;;5030569;28;20472;-67
2024/02/23 11:41:25;;;;;;;5.33;0.83;;;9.40;99.90;;;;;;5028966;28;21152;-68
2024/02/23 11:43:52;;;;;;;2.87;0.70;;;9.30;99.90;;;;;;5030494;28;20420;-68
2024/02/23 11:46:18;;;;;;;2.43;0.67;;;9.40;99.90;;;;;;5028861;28;20476;-69
2024/02/23 11:48:46;;;;;;;2.03;0.77;;;9.50;99.90;;;;;;5031570;28;20433;-68
2024/02/23 11:51:13;;;;;;;22.30;2.40;;;9.40;99.90;;;;;;5028924;28;20781;-70
2024/02/23 11:53:39;;;;;;;4.13;0.90;;;9.30;99.90;;;;;;5031056;28;20779;-66
2024/02/23 11:56:05;;;;;;;2.37;0.50;;;9.30;99.90;;;;;;5030532;28;20425;-71
2024/02/23 11:58:33;;;;;;;1.80;0.90;;;9.30;99.90;;;;;;5030538;28;20429;-66
2024/02/23 12:01:02;;;;;;;3.17;0.63;;;9.30;99.90;;;;;;5030568;28;20914;-71
2024/02/23 12:03:29;;;;;;;2.93;0.73;;;9.20;99.90;;;;;;5029815;28;20843;-71
2024/02/23 12:05:57;;;;;;;3.80;0.90;;;9.20;99.90;;;;;;5030473;28;20431;-69
2024/02/23 12:08:23;;;;;;;1.90;0.90;;;9.20;99.90;;;;;;5029613;28;20420;-70
2024/02/23 12:10:49;;;;;;;2.90;0.77;;;9.20;99.90;;;;;;5031032;28;20425;-68
2024/02/23 12:13:15;;;;;;;0.90;0.50;;;9.20;99.90;;;;;;5029443;28;20522;-66
2024/02/23 12:15:40;;;;;;;2.17;0.83;;;9.10;99.90;;;;;;5029185;28;20214;-68
2024/02/23 12:18:06;;;;;;;0.73;0.50;;;9.00;99.90;;;;;;5029456;28;20546;-71
2024/02/23 12:20:35;;;;;;;5.50;0.83;;;9.00;99.90;;;;;;5028978;28;20181;-65
2024/02/23 12:23:01;;;;;;;4.83;0.90;;;8.90;99.90;;;;;;5030964;28;20424;-66
2024/02/23 12:25:27;;;;;;;2.20;0.63;;;8.80;99.90;;;;;;5028464;28;20429;-66
2024/02/23 12:27:57;;;;;;;1.40;0.57;;;8.80;99.90;;;;;;5030791;28;20425;-71
2024/02/23 12:30:23;;;;;;;2.03;0.60;;;8.70;99.90;;;;;;5029197;28;20181;-67
2024/02/23 12:32:48;;;;;;;3.10;0.70;;;8.70;99.90;;;;;;5030319;28;21013;-69
2024/02/23 12:35:14;;;;;;;0.70;0.40;;;8.70;99.90;;;;;;5027998;28;20561;-69
2024/02/23 12:37:43;;;;;;;1.27;0.60;;;8.60;99.90;;;;;;5029348;28;20594;-72
2024/02/23 12:40:09;;;;;;;2.53;0.67;;;8.60;99.90;;;;;;5029466;28;20428;-67
2024/02/23 12:42:35;;;;;;;1.43;0.60;;;8.70;99.90;;;;;;5029329;28;20907;-68
2024/02/23 12:45:01;;;;;;;3.23;1.07;;;8.60;99.90;;;;;;5028926;28;20432;-68
2024/02/23 12:47:26;;;;;;;2.00;1.17;;;8.70;99.90;;;;;;5028290;28;20197;-66
2024/02/23 12:49:52;;;;;;;2.53;0.93;;;8.70;99.90;;;;;;5031239;28;20194;-70
2024/02/23 12:52:18;;;;;;;3.63;1.50;;;8.70;99.90;;;;;;5027837;28;20194;-69
2024/02/23 12:54:43;;;;;;;2.37;0.70;;;8.80;99.90;;;;;;5030673;28;20691;-68